^^

..:: Storico WU ::..




Lo storico viene creato da WUnderground con i dati che la stazione Meteomincio invia al loro server. L' aggiornamento viene fatto ogni 5 minuti circa, tuttavia possono esserci intervalli pił ampi a causa di errori, interruzioni di servizio o problemi nell' invio tramite FTP.


Storico stazione MeteoMincio
Giorno Sommario per Febbario 01, 2022 Unità:  Inglese    Metrico   Entrambi
Giorno Settimana Mese Anno
  Max: Min: Media:
Temperatura: 59 °F 33.8 °F 43.9 °F
Dew Point: 33.8 °F 24.8 °F 28.9 °F
Umidità: 81% 28% 58%
Velocità vento: 10.6mph 0mph 5mph
Raffica: 14.9mph - -
Direzione- - West
Pressione: 30 in 29.8 in -
Precipitazioni: 0 in    
 
 
Tabulato Dati per Febbario 01, 2022
Ora Temperatura Dew Point Pressione Direzione Velocità vento Raffica Umidità Intensità pioggia (oraria) Info solare Situazione
00:04 35.6 °F 30.2 °F 29.8 in WSW 5 mph 6.2 mph 81% 0 in 0.00 W/m2 unknown
00:09 33.8 °F 28.4 °F 29.8 in WSW 5.6 mph 6.8 mph 81% 0 in 0.00 W/m2 unknown
00:14 33.8 °F 28.4 °F 29.8 in WSW 5.6 mph 8.1 mph 81% 0 in 0.00 W/m2 unknown
00:19 33.8 °F 28.4 °F 29.8 in West 6.2 mph 8.1 mph 81% 0 in 0.00 W/m2 unknown
00:24 33.8 °F 28.4 °F 29.8 in West 8.1 mph 11.2 mph 81% 0 in 0.00 W/m2 unknown
00:29 37.4 °F 28.4 °F 29.8 in WNW 9.3 mph 11.8 mph 79% 0 in 0.00 W/m2 unknown
00:34 37.4 °F 28.4 °F 29.8 in WNW 8.1 mph 11.8 mph 74% 0 in 0.00 W/m2 unknown
00:39 37.4 °F 28.4 °F 29.8 in WNW 7.5 mph 11.8 mph 69% 0 in 0.00 W/m2 unknown
00:44 37.4 °F 28.4 °F 29.8 in West 6.8 mph 10.6 mph 68% 0 in 0.00 W/m2 unknown
00:49 37.4 °F 28.4 °F 29.8 in WNW 6.8 mph 9.9 mph 68% 0 in 0.00 W/m2 unknown
00:54 37.4 °F 28.4 °F 29.8 in West 8.7 mph 10.6 mph 68% 0 in 0.00 W/m2 unknown
00:59 37.4 °F 28.4 °F 29.8 in West 8.1 mph 10.6 mph 69% 0 in 0.00 W/m2 unknown
01:04 37.4 °F 28.4 °F 29.8 in WNW 8.1 mph 10.6 mph 69% 0 in 0.00 W/m2 unknown
01:09 37.4 °F 28.4 °F 29.8 in WNW 8.7 mph 11.8 mph 69% 0 in 0.00 W/m2 unknown
01:14 37.4 °F 28.4 °F 29.8 in WNW 7.5 mph 11.8 mph 67% 0 in 0.00 W/m2 unknown
01:19 37.4 °F 28.4 °F 29.8 in WNW 7.5 mph 10.6 mph 67% 0 in 0.00 W/m2 unknown
01:24 37.4 °F 28.4 °F 29.8 in WNW 6.8 mph 9.9 mph 68% 0 in 0.00 W/m2 unknown
01:29 37.4 °F 28.4 °F 29.8 in WNW 5 mph 6.8 mph 69% 0 in 0.00 W/m2 unknown
01:34 37.4 °F 28.4 °F 29.8 in NW 6.8 mph 9.3 mph 69% 0 in 0.00 W/m2 unknown
01:39 37.4 °F 28.4 °F 29.8 in NW 6.8 mph 9.3 mph 68% 0 in 0.00 W/m2 unknown
01:44 37.4 °F 28.4 °F 29.8 in WNW 6.8 mph 9.3 mph 67% 0 in 0.00 W/m2 unknown
01:49 37.4 °F 28.4 °F 29.8 in WNW 6.8 mph 8.7 mph 67% 0 in 0.00 W/m2 unknown
01:54 37.4 °F 26.6 °F 29.8 in WNW 6.8 mph 9.3 mph 66% 0 in 0.00 W/m2 unknown
01:59 37.4 °F 26.6 °F 29.8 in WNW 6.8 mph 9.3 mph 67% 0 in 0.00 W/m2 unknown
02:04 37.4 °F 26.6 °F 29.8 in WNW 5 mph 8.1 mph 68% 0 in 0.00 W/m2 unknown
02:09 37.4 °F 26.6 °F 29.8 in WNW 6.2 mph 8.7 mph 68% 0 in 0.00 W/m2 unknown
02:14 37.4 °F 26.6 °F 29.8 in NW 6.8 mph 9.3 mph 69% 0 in 0.00 W/m2 unknown
02:19 37.4 °F 26.6 °F 29.8 in WNW 6.2 mph 8.7 mph 68% 0 in 0.00 W/m2 unknown
02:24 37.4 °F 26.6 °F 29.8 in WNW 6.2 mph 9.3 mph 68% 0 in 0.00 W/m2 unknown
02:29 37.4 °F 26.6 °F 29.8 in West 5 mph 8.7 mph 67% 0 in 0.00 W/m2 unknown
02:34 37.4 °F 26.6 °F 29.8 in WSW 5 mph 6.8 mph 70% 0 in 0.00 W/m2 unknown
02:39 35.6 °F 26.6 °F 29.8 in SW 5.6 mph 6.8 mph 72% 0 in 0.00 W/m2 unknown
02:44 35.6 °F 28.4 °F 29.8 in SW 4.3 mph 6.8 mph 76% 0 in 0.00 W/m2 unknown
02:49 35.6 °F 26.6 °F 29.8 in WSW 5.6 mph 6.8 mph 72% 0 in 0.00 W/m2 unknown
02:54 35.6 °F 26.6 °F 29.8 in WSW 6.2 mph 8.7 mph 72% 0 in 0.00 W/m2 unknown
02:59 35.6 °F 26.6 °F 29.8 in WSW 5.6 mph 8.7 mph 71% 0 in 0.00 W/m2 unknown
03:04 35.6 °F 26.6 °F 29.8 in West 6.2 mph 6.8 mph 71% 0 in 0.00 W/m2 unknown
03:09 35.6 °F 26.6 °F 29.8 in West 6.2 mph 6.8 mph 71% 0 in 0.00 W/m2 unknown
03:14 33.8 °F 26.6 °F 29.8 in West 6.8 mph 9.3 mph 72% 0 in 0.00 W/m2 unknown
03:19 35.6 °F 26.6 °F 29.8 in West 6.8 mph 9.3 mph 72% 0 in 0.00 W/m2 unknown
03:24 35.6 °F 26.6 °F 29.8 in West 6.2 mph 8.7 mph 70% 0 in 0.00 W/m2 unknown
03:29 37.4 °F 26.6 °F 29.8 in West 6.2 mph 9.3 mph 69% 0 in 0.00 W/m2 unknown
03:34 37.4 °F 26.6 °F 29.8 in West 6.8 mph 10.6 mph 67% 0 in 0.00 W/m2 unknown
03:39 37.4 °F 26.6 °F 29.8 in West 6.2 mph 9.9 mph 68% 0 in 0.00 W/m2 unknown
03:44 35.6 °F 26.6 °F 29.8 in West 6.2 mph 8.1 mph 70% 0 in 0.00 W/m2 unknown
03:49 35.6 °F 26.6 °F 29.8 in West 5.6 mph 6.8 mph 71% 0 in 0.00 W/m2 unknown
03:54 35.6 °F 26.6 °F 29.8 in West 5.6 mph 6.8 mph 71% 0 in 0.00 W/m2 unknown
03:59 35.6 °F 26.6 °F 29.8 in West 6.2 mph 8.1 mph 73% 0 in 0.00 W/m2 unknown
04:04 33.8 °F 26.6 °F 29.8 in West 6.2 mph 8.1 mph 74% 0 in 0.00 W/m2 unknown
04:09 35.6 °F 26.6 °F 29.8 in WNW 7.5 mph 10.6 mph 74% 0 in 0.00 W/m2 unknown
04:14 37.4 °F 28.4 °F 29.8 in WNW 9.3 mph 11.8 mph 73% 0 in 0.00 W/m2 unknown
04:19 37.4 °F 28.4 °F 29.8 in WNW 8.7 mph 11.8 mph 69% 0 in 0.00 W/m2 unknown
04:24 37.4 °F 28.4 °F 29.8 in WNW 8.7 mph 11.8 mph 67% 0 in 0.00 W/m2 unknown
04:29 37.4 °F 28.4 °F 29.8 in WNW 8.7 mph 11.8 mph 67% 0 in 0.00 W/m2 unknown
04:34 37.4 °F 28.4 °F 29.8 in WNW 8.7 mph 11.8 mph 67% 0 in 0.00 W/m2 unknown
04:39 37.4 °F 28.4 °F 29.8 in WNW 10.6 mph 13 mph 67% 0 in 0.00 W/m2 unknown
04:44 37.4 °F 28.4 °F 29.8 in WNW 10.6 mph 14.3 mph 67% 0 in 0.00 W/m2 unknown
04:49 39.2 °F 28.4 °F 29.8 in WNW 10.6 mph 14.9 mph 67% 0 in 0.00 W/m2 unknown
04:54 39.2 °F 28.4 °F 29.8 in West 10.6 mph 14.9 mph 66% 0 in 0.00 W/m2 unknown
04:59 39.2 °F 28.4 °F 29.8 in West 10.6 mph 14.3 mph 65% 0 in 0.00 W/m2 unknown
05:04 39.2 °F 28.4 °F 29.8 in West 9.9 mph 14.3 mph 65% 0 in 0.00 W/m2 unknown
05:09 39.2 °F 28.4 °F 29.8 in West 9.3 mph 13 mph 66% 0 in 0.00 W/m2 unknown
05:14 39.2 °F 28.4 °F 29.8 in West 8.7 mph 11.8 mph 68% 0 in 0.00 W/m2 unknown
05:19 37.4 °F 28.4 °F 29.8 in West 9.9 mph 11.8 mph 69% 0 in 0.00 W/m2 unknown
05:24 37.4 °F 28.4 °F 29.8 in West 10.6 mph 14.9 mph 70% 0 in 0.00 W/m2 unknown
05:29 37.4 °F 28.4 °F 29.8 in West 10.6 mph 14.9 mph 70% 0 in 0.00 W/m2 unknown
05:34 37.4 °F 28.4 °F 29.8 in West 9.9 mph 13 mph 70% 0 in 0.00 W/m2 unknown
05:39 37.4 °F 28.4 °F 29.8 in WSW 8.7 mph 11.8 mph 72% 0 in 0.00 W/m2 unknown
05:44 37.4 °F 28.4 °F 29.8 in WSW 8.1 mph 11.8 mph 74% 0 in 0.00 W/m2 unknown
05:49 35.6 °F 28.4 °F 29.9 in WSW 8.7 mph 11.2 mph 74% 0 in 0.00 W/m2 unknown
05:54 35.6 °F 28.4 °F 29.9 in WSW 9.9 mph 13 mph 74% 0 in 0.00 W/m2 unknown
05:59 35.6 °F 28.4 °F 29.9 in West 9.3 mph 13 mph 73% 0 in 0.00 W/m2 unknown
06:04 35.6 °F 28.4 °F 29.9 in West 8.7 mph 11.8 mph 72% 0 in 0.00 W/m2 unknown
06:09 37.4 °F 28.4 °F 29.9 in WSW 6.8 mph 9.9 mph 72% 0 in 0.00 W/m2 unknown
06:14 37.4 °F 28.4 °F 29.9 in SSW 5 mph 8.7 mph 71% 0 in 0.00 W/m2 unknown
06:19 37.4 °F 28.4 °F 29.9 in SW 5 mph 6.8 mph 71% 0 in 0.00 W/m2 unknown
06:24 37.4 °F 28.4 °F 29.9 in SW 4.3 mph 6.8 mph 71% 0 in 0.00 W/m2 unknown
06:29 37.4 °F 28.4 °F 29.9 in West 4.3 mph 6.2 mph 70% 0 in 0.00 W/m2 unknown
06:34 37.4 °F 28.4 °F 29.9 in WSW 4.3 mph 6.2 mph 69% 0 in 0.00 W/m2 unknown
06:39 37.4 °F 28.4 °F 29.9 in SW 5 mph 6.2 mph 69% 0 in 0.00 W/m2 unknown
06:44 37.4 °F 28.4 °F 29.9 in WSW 3.7 mph 6.2 mph 68% 0 in 0.00 W/m2 unknown
06:49 37.4 °F 28.4 °F 29.9 in West 4.3 mph 5 mph 69% 0 in 0.00 W/m2 unknown
06:54 37.4 °F 26.6 °F 29.9 in West 3.7 mph 5.6 mph 68% 0 in 0.00 W/m2 unknown
06:59 37.4 °F 28.4 °F 29.9 in WSW 3.1 mph 6.2 mph 69% 0 in 0.00 W/m2 unknown
07:04 37.4 °F 26.6 °F 29.9 in WSW 3.1 mph 5 mph 69% 0 in 0.00 W/m2 unknown
07:09 37.4 °F 28.4 °F 29.9 in WSW 3.1 mph 5 mph 70% 0 in 0.00 W/m2 unknown
07:14 37.4 °F 28.4 °F 29.9 in WNW 1.9 mph 5 mph 71% 0 in 0.00 W/m2 unknown
07:19 35.6 °F 26.6 °F 29.9 in WSW 3.1 mph 3.7 mph 73% 0 in 0.00 W/m2 unknown
07:24 35.6 °F 26.6 °F 29.9 in SW 5 mph 6.2 mph 73% 0 in 0.00 W/m2 unknown
07:29 35.6 °F 28.4 °F 29.9 in South 6.2 mph 9.3 mph 73% 0 in 0.00 W/m2 unknown
07:34 35.6 °F 28.4 °F 29.9 in SSW 5 mph 8.7 mph 72% 0 in 0.00 W/m2 unknown
07:39 37.4 °F 28.4 °F 29.9 in WSW 3.1 mph 6.2 mph 71% 0 in 0.00 W/m2 unknown
07:44 37.4 °F 28.4 °F 29.9 in West 5 mph 6.8 mph 69% 0 in 5.00 W/m2 unknown
07:49 37.4 °F 28.4 °F 29.9 in WNW 5 mph 6.8 mph 67% 0 in 7.00 W/m2 unknown
07:54 37.4 °F 28.4 °F 29.9 in WNW 3.7 mph 6.8 mph 66% 0 in 9.00 W/m2 unknown
07:59 37.4 °F 28.4 °F 29.9 in WNW 3.7 mph 5 mph 67% 0 in 11.00 W/m2 unknown
08:04 37.4 °F 28.4 °F 29.9 in West 2.5 mph 5 mph 68% 0 in 12.00 W/m2 unknown
08:09 37.4 °F 28.4 °F 29.9 in WNW 1.9 mph 3.7 mph 70% 0 in 16.00 W/m2 unknown
08:14 35.6 °F 28.4 °F 29.9 in WNW 2.5 mph 3.7 mph 72% 0 in 18.00 W/m2 unknown
08:19 35.6 °F 28.4 °F 29.9 in NW 2.5 mph 3.7 mph 72% 0 in 19.00 W/m2 unknown
08:24 35.6 °F 28.4 °F 29.9 in NW 2.5 mph 3.7 mph 71% 0 in 21.00 W/m2 unknown
08:29 37.4 °F 28.4 °F 29.9 in NW 1.9 mph 3.7 mph 71% 0 in 37.00 W/m2 unknown
08:34 37.4 °F 28.4 °F 29.9 in WNW 2.5 mph 3.7 mph 70% 0 in 77.00 W/m2 unknown
08:39 37.4 °F 28.4 °F 29.9 in WSW 3.1 mph 3.7 mph 70% 0 in 91.00 W/m2 unknown
08:44 37.4 °F 28.4 °F 29.9 in SW 4.3 mph 6.2 mph 70% 0 in 105.00 W/m2 unknown
08:49 37.4 °F 30.2 °F 29.9 in SSW 7.5 mph 9.3 mph 71% 0 in 120.00 W/m2 unknown
08:54 39.2 °F 30.2 °F 29.9 in SW 5 mph 8.7 mph 70% 0 in 134.00 W/m2 unknown
08:59 39.2 °F 30.2 °F 29.9 in West 4.3 mph 5 mph 71% 0 in 151.00 W/m2 unknown
09:04 39.2 °F 30.2 °F 29.9 in WSW 3.1 mph 5 mph 71% 0 in 163.00 W/m2 unknown
09:09 39.2 °F 30.2 °F 29.9 in WSW 3.7 mph 5 mph 70% 0 in 179.00 W/m2 unknown
09:14 41 °F 32 °F 29.9 in WSW 3.1 mph 5 mph 69% 0 in 193.00 W/m2 unknown
09:19 41 °F 32 °F 29.9 in SW 3.1 mph 3.7 mph 69% 0 in 207.00 W/m2 unknown
09:24 42.8 °F 32 °F 29.9 in SSW 3.1 mph 3.7 mph 67% 0 in 220.00 W/m2 unknown
09:29 42.8 °F 32 °F 29.9 in SSW 5 mph 6.8 mph 65% 0 in 232.00 W/m2 unknown
09:34 42.8 °F 32 °F 29.9 in SW 5 mph 6.8 mph 63% 0 in 243.00 W/m2 unknown
09:39 42.8 °F 32 °F 29.9 in SW 3.7 mph 6.2 mph 63% 0 in 253.00 W/m2 unknown
09:44 42.8 °F 32 °F 29.9 in SW 5 mph 6.2 mph 64% 0 in 265.00 W/m2 unknown
09:49 44.6 °F 32 °F 29.9 in SW 5 mph 6.2 mph 64% 0 in 276.00 W/m2 unknown
09:54 44.6 °F 32 °F 29.9 in SW 5.6 mph 6.8 mph 64% 0 in 287.00 W/m2 unknown
09:59 44.6 °F 32 °F 29.9 in WSW 6.8 mph 8.7 mph 63% 0 in 299.00 W/m2 unknown
10:04 44.6 °F 32 °F 29.9 in WSW 7.5 mph 9.3 mph 59% 0 in 309.00 W/m2 unknown
10:09 46.4 °F 32 °F 29.9 in WSW 3.1 mph 8.7 mph 59% 0 in 318.00 W/m2 unknown
10:14 46.4 °F 32 °F 29.9 in SW 4.3 mph 6.2 mph 59% 0 in 329.00 W/m2 unknown
10:19 46.4 °F 32 °F 29.9 in WSW 7.5 mph 9.3 mph 59% 0 in 336.00 W/m2 unknown
10:24 46.4 °F 33.8 °F 29.9 in WSW 6.8 mph 8.7 mph 60% 0 in 345.00 W/m2 unknown
10:29 48.2 °F 32 °F 29.9 in WNW 3.1 mph 8.1 mph 58% 0 in 355.00 W/m2 unknown
10:34 48.2 °F 32 °F 29.9 in West 3.7 mph 5 mph 56% 0 in 366.00 W/m2 unknown
10:39 48.2 °F 32 °F 29.9 in WSW 4.3 mph 5 mph 56% 0 in 373.00 W/m2 unknown
10:44 48.2 °F 32 °F 29.9 in WNW 4.3 mph 5 mph 56% 0 in 381.00 W/m2 unknown
10:49 48.2 °F 32 °F 29.9 in WNW 4.3 mph 5 mph 54% 0 in 388.00 W/m2 unknown
10:54 48.2 °F 32 °F 29.9 in West 6.8 mph 8.1 mph 53% 0 in 396.00 W/m2 unknown
10:59 48.2 °F 32 °F 29.9 in WSW 6.8 mph 8.1 mph 53% 0 in 404.00 W/m2 unknown
11:04 50 °F 32 °F 30 in WNW 8.7 mph 9.9 mph 53% 0 in 411.00 W/m2 unknown
11:09 50 °F 32 °F 30 in West 8.7 mph 10.6 mph 51% 0 in 418.00 W/m2 unknown
11:14 50 °F 32 °F 30 in WNW 8.7 mph 11.8 mph 51% 0 in 424.00 W/m2 unknown
11:19 50 °F 32 °F 30 in WNW 8.7 mph 11.8 mph 51% 0 in 429.00 W/m2 unknown
11:24 50 °F 32 °F 30 in WNW 8.1 mph 11.8 mph 51% 0 in 436.00 W/m2 unknown
11:29 50 °F 32 °F 30 in WNW 6.8 mph 9.9 mph 50% 0 in 441.00 W/m2 unknown
11:34 51.8 °F 32 °F 30 in WNW 6.2 mph 8.7 mph 49% 0 in 446.00 W/m2 unknown
11:39 51.8 °F 32 °F 30 in West 6.8 mph 9.3 mph 49% 0 in 450.00 W/m2 unknown
11:44 51.8 °F 32 °F 30 in West 6.2 mph 8.7 mph 48% 0 in 455.00 W/m2 unknown
11:49 51.8 °F 32 °F 30 in West 4.3 mph 8.1 mph 48% 0 in 461.00 W/m2 unknown
11:54 51.8 °F 32 °F 29.9 in West 3.7 mph 5 mph 48% 0 in 462.00 W/m2 unknown
11:59 51.8 °F 32 °F 29.9 in West 5 mph 6.8 mph 45% 0 in 466.00 W/m2 unknown
12:04 53.6 °F 32 °F 29.9 in West 5 mph 6.8 mph 45% 0 in 469.00 W/m2 unknown
12:09 53.6 °F 32 °F 29.9 in West 3.7 mph 6.2 mph 45% 0 in 473.00 W/m2 unknown
12:14 53.6 °F 33.8 °F 29.9 in West 5 mph 6.8 mph 45% 0 in 475.00 W/m2 unknown
12:19 53.6 °F 33.8 °F 29.9 in WSW 5.6 mph 6.8 mph 45% 0 in 476.00 W/m2 unknown
12:24 55.4 °F 33.8 °F 29.9 in West 5.6 mph 6.8 mph 45% 0 in 478.00 W/m2 unknown
12:29 55.4 °F 33.8 °F 29.9 in WSW 6.2 mph 6.8 mph 45% 0 in 478.00 W/m2 unknown
12:34 55.4 °F 32 °F 29.9 in WSW 5.6 mph 6.8 mph 43% 0 in 480.00 W/m2 unknown
12:39 55.4 °F 33.8 °F 29.9 in WSW 5.6 mph 6.8 mph 44% 0 in 480.00 W/m2 unknown
12:44 55.4 °F 32 °F 29.9 in WSW 6.2 mph 8.1 mph 42% 0 in 480.00 W/m2 unknown
12:49 55.4 °F 33.8 °F 29.9 in WSW 5.6 mph 8.1 mph 42% 0 in 482.00 W/m2 unknown
12:54 57.2 °F 32 °F 29.9 in WSW 6.2 mph 9.3 mph 40% 0 in 482.00 W/m2 unknown
12:59 57.2 °F 30.2 °F 29.9 in West 6.2 mph 8.7 mph 38% 0 in 478.00 W/m2 unknown
13:04 57.2 °F 32 °F 29.9 in WSW 6.2 mph 8.1 mph 39% 0 in 476.00 W/m2 unknown
13:09 57.2 °F 30.2 °F 29.9 in WSW 6.8 mph 8.1 mph 37% 0 in 475.00 W/m2 unknown
13:14 57.2 °F 32 °F 29.9 in WSW 6.8 mph 9.3 mph 38% 0 in 475.00 W/m2 unknown
13:19 57.2 °F 30.2 °F 29.9 in WSW 6.8 mph 8.7 mph 36% 0 in 471.00 W/m2 unknown
13:24 57.2 °F 30.2 °F 29.9 in WSW 6.2 mph 8.1 mph 36% 0 in 468.00 W/m2 unknown
13:29 57.2 °F 30.2 °F 29.9 in West 6.8 mph 9.3 mph 36% 0 in 464.00 W/m2 unknown
13:34 57.2 °F 30.2 °F 29.9 in WSW 6.2 mph 8.7 mph 35% 0 in 461.00 W/m2 unknown
13:39 57.2 °F 30.2 °F 29.9 in West 6.8 mph 8.1 mph 35% 0 in 459.00 W/m2 unknown
13:44 57.2 °F 28.4 °F 29.9 in West 6.2 mph 8.1 mph 33% 0 in 455.00 W/m2 unknown
13:49 57.2 °F 28.4 °F 29.9 in West 6.2 mph 8.1 mph 34% 0 in 448.00 W/m2 unknown
13:54 57.2 °F 28.4 °F 29.9 in West 6.2 mph 9.3 mph 33% 0 in 443.00 W/m2 unknown
13:59 57.2 °F 28.4 °F 29.9 in West 6.2 mph 8.7 mph 33% 0 in 438.00 W/m2 unknown
14:04 57.2 °F 28.4 °F 29.9 in West 5 mph 8.1 mph 32% 0 in 432.00 W/m2 unknown
14:09 57.2 °F 28.4 °F 29.9 in WSW 6.8 mph 9.3 mph 32% 0 in 425.00 W/m2 unknown
14:14 57.2 °F 28.4 °F 29.9 in WSW 6.8 mph 8.7 mph 32% 0 in 418.00 W/m2 unknown
14:19 57.2 °F 28.4 °F 29.9 in West 5.6 mph 8.1 mph 32% 0 in 413.00 W/m2 unknown
14:24 57.2 °F 28.4 °F 29.9 in WSW 5 mph 6.8 mph 32% 0 in 404.00 W/m2 unknown
14:29 57.2 °F 26.6 °F 29.9 in WSW 8.7 mph 11.8 mph 30% 0 in 399.00 W/m2 unknown
14:34 59 °F 24.8 °F 29.9 in West 8.1 mph 11.8 mph 29% 0 in 392.00 W/m2 unknown
14:39 59 °F 24.8 °F 29.9 in WNW 5.6 mph 11.8 mph 28% 0 in 383.00 W/m2 unknown
14:44 59 °F 24.8 °F 29.9 in West 6.2 mph 6.8 mph 28% 0 in 376.00 W/m2 unknown
14:49 59 °F 26.6 °F 29.9 in West 5.6 mph 6.8 mph 29% 0 in 366.00 W/m2 unknown
14:54 59 °F 26.6 °F 29.9 in West 5.6 mph 6.8 mph 30% 0 in 359.00 W/m2 unknown
14:59 59 °F 24.8 °F 29.9 in WNW 5 mph 6.8 mph 28% 0 in 350.00 W/m2 unknown
15:04 59 °F 26.6 °F 29.9 in WSW 5 mph 6.2 mph 29% 0 in 339.00 W/m2 unknown
15:09 59 °F 26.6 °F 29.9 in West 4.3 mph 6.2 mph 29% 0 in 330.00 W/m2 unknown
15:14 59 °F 24.8 °F 29.9 in West 3.1 mph 6.2 mph 28% 0 in 318.00 W/m2 unknown
15:19 59 °F 26.6 °F 29.9 in West 5.6 mph 8.1 mph 29% 0 in 308.00 W/m2 unknown
15:24 59 °F 26.6 °F 29.9 in WNW 5 mph 8.1 mph 29% 0 in 295.00 W/m2 unknown
15:29 59 °F 24.8 °F 29.9 in West 5 mph 6.8 mph 28% 0 in 287.00 W/m2 unknown
15:34 59 °F 24.8 °F 29.9 in West 3.7 mph 6.2 mph 28% 0 in 274.00 W/m2 unknown
15:39 59 °F 24.8 °F 29.9 in West 4.3 mph 5 mph 28% 0 in 264.00 W/m2 unknown
15:44 59 °F 24.8 °F 29.9 in West 5.6 mph 8.1 mph 28% 0 in 251.00 W/m2 unknown
15:49 57.2 °F 24.8 °F 29.9 in West 5 mph 8.1 mph 28% 0 in 236.00 W/m2 unknown
15:54 57.2 °F 24.8 °F 29.9 in WSW 3.7 mph 6.2 mph 29% 0 in 221.00 W/m2 unknown
15:59 57.2 °F 24.8 °F 29.9 in WSW 3.7 mph 6.2 mph 29% 0 in 209.00 W/m2 unknown
16:04 57.2 °F 26.6 °F 29.9 in WSW 3.1 mph 6.2 mph 30% 0 in 193.00 W/m2 unknown
16:09 57.2 °F 26.6 °F 29.9 in SW 3.7 mph 5 mph 30% 0 in 178.00 W/m2 unknown
16:14 57.2 °F 24.8 °F 29.9 in WSW 3.7 mph 5 mph 29% 0 in 162.00 W/m2 unknown
16:19 57.2 °F 26.6 °F 29.9 in SW 3.7 mph 3.7 mph 31% 0 in 141.00 W/m2 unknown
16:24 57.2 °F 26.6 °F 29.9 in SW 3.7 mph 3.7 mph 31% 0 in 132.00 W/m2 unknown
16:29 57.2 °F 26.6 °F 29.9 in WSW 3.1 mph 3.7 mph 31% 0 in 67.00 W/m2 unknown
16:34 57.2 °F 26.6 °F 29.9 in West 1.9 mph 3.7 mph 33% 0 in 28.00 W/m2 unknown
16:39 57.2 °F 28.4 °F 29.9 in WNW 1.9 mph 3.1 mph 34% 0 in 26.00 W/m2 unknown
16:44 55.4 °F 30.2 °F 29.9 in West 1.9 mph 2.5 mph 37% 0 in 25.00 W/m2 unknown
16:49 55.4 °F 28.4 °F 29.9 in WNW 1.2 mph 2.5 mph 37% 0 in 23.00 W/m2 unknown
16:54 55.4 °F 28.4 °F 29.9 in WNW 0.6 mph 1.2 mph 36% 0 in 21.00 W/m2 unknown
16:59 53.6 °F 28.4 °F 29.9 in WNW 0.6 mph 1.2 mph 37% 0 in 19.00 W/m2 unknown
17:04 53.6 °F 30.2 °F 29.9 in WNW 0.6 mph 1.2 mph 41% 0 in 16.00 W/m2 unknown
17:09 53.6 °F 30.2 °F 29.9 in West 1.9 mph 2.5 mph 43% 0 in 14.00 W/m2 unknown
17:14 51.8 °F 30.2 °F 29.9 in WSW 1.9 mph 3.7 mph 44% 0 in 12.00 W/m2 unknown
17:19 51.8 °F 30.2 °F 29.9 in SW 1.9 mph 3.1 mph 43% 0 in 9.00 W/m2 unknown
17:24 51.8 °F 32 °F 29.9 in SW 1.9 mph 2.5 mph 47% 0 in 5.00 W/m2 unknown
17:29 50 °F 32 °F 29.9 in SW 1.9 mph 2.5 mph 47% 0 in 0.00 W/m2 unknown
17:34 50 °F 32 °F 29.9 in SW 1.2 mph 2.5 mph 49% 0 in 0.00 W/m2 unknown
17:39 50 °F 30.2 °F 29.9 in SW 1.2 mph 1.9 mph 49% 0 in 0.00 W/m2 unknown
17:44 48.2 °F 30.2 °F 29.9 in Calm   1.2 mph 52% 0 in 0.00 W/m2 unknown
17:49 48.2 °F 30.2 °F 29.9 in SW 1.2 mph 2.5 mph 52% 0 in 0.00 W/m2 unknown
17:54 46.4 °F 30.2 °F 29.9 in SW 1.9 mph 3.7 mph 52% 0 in 0.00 W/m2 unknown
17:59 46.4 °F 32 °F 29.9 in SW 1.9 mph 3.1 mph 55% 0 in 0.00 W/m2 unknown
18:04 46.4 °F 30.2 °F 29.9 in SW 1.2 mph 1.9 mph 54% 0 in 0.00 W/m2 unknown
18:09 46.4 °F 32 °F 29.9 in Calm   1.2 mph 57% 0 in 0.00 W/m2 unknown
18:14 44.6 °F 32 °F 29.9 in Calm     59% 0 in 0.00 W/m2 unknown
18:19 44.6 °F 32 °F 29.9 in Calm     58% 0 in 0.00 W/m2 unknown
18:24 44.6 °F 30.2 °F 29.9 in Calm     56% 0 in 0.00 W/m2 unknown
18:29 44.6 °F 30.2 °F 29.9 in SW 1.9 mph 3.1 mph 58% 0 in 0.00 W/m2 unknown
18:34 44.6 °F 30.2 °F 29.9 in SW 2.5 mph 3.7 mph 56% 0 in 0.00 W/m2 unknown
18:39 44.6 °F 30.2 °F 29.9 in SSW 2.5 mph 3.7 mph 57% 0 in 0.00 W/m2 unknown
18:44 44.6 °F 30.2 °F 29.9 in SW 1.9 mph 3.1 mph 58% 0 in 0.00 W/m2 unknown
18:49 44.6 °F 30.2 °F 29.9 in SW 2.5 mph 3.7 mph 58% 0 in 0.00 W/m2 unknown
18:54 44.6 °F 30.2 °F 29.9 in SW 2.5 mph 3.7 mph 58% 0 in 0.00 W/m2 unknown
18:59 42.8 °F 30.2 °F 29.9 in SW 3.1 mph 3.7 mph 60% 0 in 0.00 W/m2 unknown
19:04 42.8 °F 30.2 °F 29.9 in SW 3.1 mph 3.7 mph 60% 0 in 0.00 W/m2 unknown
19:09 42.8 °F 30.2 °F 29.9 in SW 2.5 mph 3.7 mph 62% 0 in 0.00 W/m2 unknown
19:14 42.8 °F 30.2 °F 29.9 in WSW 3.1 mph 3.7 mph 60% 0 in 0.00 W/m2 unknown
19:19 42.8 °F 28.4 °F 29.9 in West 3.1 mph 3.7 mph 57% 0 in 0.00 W/m2 unknown
19:24 42.8 °F 28.4 °F 29.9 in West 3.1 mph 3.7 mph 57% 0 in 0.00 W/m2 unknown
19:29 42.8 °F 28.4 °F 29.9 in West 3.1 mph 3.7 mph 57% 0 in 0.00 W/m2 unknown
19:34 42.8 °F 28.4 °F 29.9 in West 3.7 mph 5 mph 58% 0 in 0.00 W/m2 unknown
19:39 42.8 °F 28.4 °F 29.9 in West 3.7 mph 5 mph 58% 0 in 0.00 W/m2 unknown
19:44 42.8 °F 28.4 °F 29.9 in West 3.7 mph 5 mph 56% 0 in 0.00 W/m2 unknown
19:49 42.8 °F 28.4 °F 29.9 in WSW 3.7 mph 3.7 mph 55% 0 in 0.00 W/m2 unknown
19:54 42.8 °F 28.4 °F 29.9 in West 3.7 mph 3.7 mph 54% 0 in 0.00 W/m2 unknown
19:59 42.8 °F 28.4 °F 29.9 in West 4.3 mph 5 mph 55% 0 in 0.00 W/m2 unknown
20:04 42.8 °F 26.6 °F 29.9 in West 5 mph 5 mph 55% 0 in 0.00 W/m2 unknown
20:09 42.8 °F 26.6 °F 29.9 in West 4.3 mph 6.2 mph 56% 0 in 0.00 W/m2 unknown
20:14 42.8 °F 28.4 °F 29.9 in West 3.1 mph 6.2 mph 57% 0 in 0.00 W/m2 unknown
20:19 42.8 °F 28.4 °F 29.9 in West 3.7 mph 5 mph 57% 0 in 0.00 W/m2 unknown
20:24 42.8 °F 28.4 °F 29.9 in West 2.5 mph 5 mph 60% 0 in 0.00 W/m2 unknown
20:29 41 °F 28.4 °F 29.9 in WNW 3.1 mph 3.7 mph 61% 0 in 0.00 W/m2 unknown
20:34 41 °F 28.4 °F 29.9 in West 3.1 mph 5 mph 61% 0 in 0.00 W/m2 unknown
20:39 41 °F 28.4 °F 29.9 in WSW 3.7 mph 5 mph 60% 0 in 0.00 W/m2 unknown
20:44 42.8 °F 28.4 °F 29.9 in WSW 3.1 mph 5 mph 59% 0 in 0.00 W/m2 unknown
20:49 42.8 °F 28.4 °F 29.9 in SW 3.1 mph 3.7 mph 58% 0 in 0.00 W/m2 unknown
20:54 42.8 °F 28.4 °F 29.9 in SW 2.5 mph 3.7 mph 58% 0 in 0.00 W/m2 unknown
20:59 41 °F 28.4 °F 29.9 in SW 2.5 mph 3.7 mph 58% 0 in 0.00 W/m2 unknown
21:04 41 °F 28.4 °F 29.9 in SW 3.1 mph 3.7 mph 59% 0 in 0.00 W/m2 unknown
21:09 42.8 °F 28.4 °F 29.9 in WSW 3.1 mph 3.7 mph 59% 0 in 0.00 W/m2 unknown
21:14 41 °F 28.4 °F 29.9 in WSW 3.1 mph 3.7 mph 59% 0 in 0.00 W/m2 unknown
21:19 41 °F 28.4 °F 29.9 in WSW 3.1 mph 3.7 mph 60% 0 in 0.00 W/m2 unknown
21:24 41 °F 28.4 °F 29.9 in WSW 3.7 mph 5 mph 61% 0 in 0.00 W/m2 unknown
21:29 39.2 °F 28.4 °F 29.9 in WSW 4.3 mph 5 mph 63% 0 in 0.00 W/m2 unknown
21:34 39.2 °F 28.4 °F 29.9 in WSW 3.1 mph 5 mph 64% 0 in 0.00 W/m2 unknown
21:39 39.2 °F 28.4 °F 29.9 in WSW 4.3 mph 5 mph 64% 0 in 0.00 W/m2 unknown
21:44 39.2 °F 28.4 °F 29.9 in WSW 3.7 mph 5 mph 64% 0 in 0.00 W/m2 unknown
21:49 39.2 °F 28.4 °F 29.9 in WSW 4.3 mph 6.2 mph 65% 0 in 0.00 W/m2 unknown
21:54 39.2 °F 28.4 °F 29.9 in WSW 4.3 mph 6.2 mph 66% 0 in 0.00 W/m2 unknown
21:59 39.2 °F 28.4 °F 29.9 in WSW 3.7 mph 6.2 mph 66% 0 in 0.00 W/m2 unknown
22:04 39.2 °F 28.4 °F 29.9 in WSW 3.7 mph 5 mph 67% 0 in 0.00 W/m2 unknown
22:09 37.4 °F 28.4 °F 29.9 in WSW 4.3 mph 6.2 mph 68% 0 in 0.00 W/m2 unknown
22:14 37.4 °F 28.4 °F 29.9 in WSW 5 mph 6.2 mph 68% 0 in 0.00 W/m2 unknown
22:19 37.4 °F 28.4 °F 29.9 in WSW 5 mph 6.8 mph 68% 0 in 0.00 W/m2 unknown
22:24 37.4 °F 28.4 °F 29.9 in WSW 3.1 mph 6.8 mph 68% 0 in 0.00 W/m2 unknown
22:29 39.2 °F 28.4 °F 29.9 in WSW 3.1 mph 5 mph 68% 0 in 0.00 W/m2 unknown
22:34 39.2 °F 28.4 °F 29.9 in WSW 1.9 mph 3.7 mph 68% 0 in 0.00 W/m2 unknown
22:39 39.2 °F 28.4 °F 29.9 in WSW 1.9 mph 3.7 mph 67% 0 in 0.00 W/m2 unknown
22:44 39.2 °F 28.4 °F 29.9 in WSW 2.5 mph 3.7 mph 68% 0 in 0.00 W/m2 unknown
22:49 39.2 °F 28.4 °F 29.9 in SW 2.5 mph 3.7 mph 68% 0 in 0.00 W/m2 unknown
22:54 39.2 °F 28.4 °F 29.9 in SW 3.1 mph 3.7 mph 68% 0 in 0.00 W/m2 unknown
22:59 37.4 °F 28.4 °F 29.9 in SW 2.5 mph 3.7 mph 69% 0 in 0.00 W/m2 unknown
23:04 37.4 °F 28.4 °F 29.9 in South 1.9 mph 3.7 mph 70% 0 in 0.00 W/m2 unknown
23:09 37.4 °F 28.4 °F 29.9 in SE 1.9 mph 3.1 mph 70% 0 in 0.00 W/m2 unknown
23:14 37.4 °F 28.4 °F 29.9 in SSW 3.1 mph 3.7 mph 69% 0 in 0.00 W/m2 unknown
23:19 37.4 °F 28.4 °F 29.9 in WSW 3.1 mph 3.7 mph 69% 0 in 0.00 W/m2 unknown
23:24 37.4 °F 28.4 °F 29.9 in West 6.8 mph 9.9 mph 70% 0 in 0.00 W/m2 unknown
23:29 37.4 °F 28.4 °F 29.9 in West 9.3 mph 11.8 mph 71% 0 in 0.00 W/m2 unknown
23:34 37.4 °F 28.4 °F 29.9 in West 8.7 mph 11.8 mph 71% 0 in 0.00 W/m2 unknown
23:39 39.2 °F 28.4 °F 29.9 in West 8.7 mph 11.8 mph 69% 0 in 0.00 W/m2 unknown
23:44 41 °F 28.4 °F 29.9 in West 8.7 mph 11.8 mph 66% 0 in 0.00 W/m2 unknown
23:49 41 °F 28.4 °F 29.9 in West 6.8 mph 11.8 mph 64% 0 in 0.00 W/m2 unknown
23:54 41 °F 28.4 °F 29.9 in West 8.1 mph 10.6 mph 63% 0 in 0.00 W/m2 unknown
23:59 41 °F 28.4 °F 29.9 in West 8.7 mph 11.8 mph 62% 0 in 0.00 W/m2 unknown
Stazione Meteorologica MeteoMincio Rivalta s/M (MN)
Con i complimenti di Weather Underground - 4 mb



METEO PILLOLE
Il disastro meteorologico più costoso
Bahamas, Florida e Louisiana
Nel 1992 il piccolo ma distruttivo uragano Andrew provoca danni valutati in 25 miliardi di dollari.
Share

Non seguire questo link o sarai bannato dal sito!